createdAt,value
2023-05-05T00:01:43.549Z,99.90
2023-05-05T00:04:10.673Z,99.90
2023-05-05T00:06:38.148Z,99.90
2023-05-05T00:09:16.946Z,99.90
2023-05-05T00:11:44.392Z,99.90
2023-05-05T00:14:12.174Z,99.90
2023-05-05T00:16:39.762Z,99.90
2023-05-05T00:19:09.258Z,99.90
2023-05-05T00:21:38.702Z,99.90
2023-05-05T00:24:13.105Z,99.90
2023-05-05T00:26:43.148Z,99.90
2023-05-05T00:29:10.754Z,99.90
2023-05-05T00:31:38.105Z,99.90
2023-05-05T00:34:05.795Z,99.90
2023-05-05T00:36:36.238Z,99.90
2023-05-05T00:39:06.673Z,99.90
2023-05-05T00:41:34.107Z,99.90
2023-05-05T00:44:08.510Z,99.90
2023-05-05T00:46:36.639Z,99.90
2023-05-05T00:49:07.758Z,99.90
2023-05-05T00:51:37.609Z,99.90
2023-05-05T00:54:07.766Z,99.90
2023-05-05T00:56:35.010Z,99.90
2023-05-05T00:59:03.916Z,99.90
2023-05-05T01:01:36.496Z,99.90
2023-05-05T01:04:04.030Z,99.90
2023-05-05T01:07:04.783Z,99.90
2023-05-05T01:10:20.221Z,99.90
2023-05-05T01:13:08.647Z,99.90
2023-05-05T01:15:46.771Z,99.90
2023-05-05T01:18:42.013Z,99.90
2023-05-05T01:21:21.847Z,99.90
2023-05-05T01:24:17.567Z,99.90
2023-05-05T01:27:27.465Z,99.90
2023-05-05T01:30:36.448Z,99.90
2023-05-05T01:33:11.586Z,99.90
2023-05-05T01:35:53.977Z,99.90
2023-05-05T01:38:36.186Z,99.90
2023-05-05T01:41:21.965Z,99.90
2023-05-05T01:43:51.252Z,99.90
2023-05-05T01:46:20.067Z,99.90
2023-05-05T01:48:49.161Z,99.90
2023-05-05T01:51:19.370Z,99.90
2023-05-05T01:53:49.711Z,99.90
2023-05-05T01:56:17.607Z,99.90
2023-05-05T01:58:46.796Z,99.90
2023-05-05T02:01:14.933Z,99.90
2023-05-05T02:03:42.931Z,99.90
2023-05-05T02:06:15.223Z,99.90
2023-05-05T02:08:43.863Z,99.90
2023-05-05T02:11:12.590Z,99.90
2023-05-05T02:13:43.014Z,99.90
2023-05-05T02:16:11.724Z,99.90
2023-05-05T02:18:39.414Z,99.90
2023-05-05T02:23:53.077Z,99.90
2023-05-05T02:26:23.813Z,99.90
2023-05-05T02:29:17.549Z,99.90
2023-05-05T02:31:49.245Z,99.90
2023-05-05T02:34:24.656Z,99.90
2023-05-05T02:36:59.973Z,99.90
2023-05-05T02:39:44.848Z,99.90
2023-05-05T02:42:22.449Z,99.90
2023-05-05T02:44:51.947Z,99.90
2023-05-05T02:47:21.241Z,99.90
2023-05-05T02:49:48.458Z,99.90
2023-05-05T02:55:01.651Z,99.90
2023-05-05T02:57:50.078Z,99.90
2023-05-05T03:00:32.530Z,99.90
2023-05-05T03:03:49.368Z,99.90
2023-05-05T03:06:31.235Z,99.90
2023-05-05T03:09:14.346Z,99.90
2023-05-05T03:12:01.022Z,99.90
2023-05-05T03:14:37.066Z,99.90
2023-05-05T03:17:05.621Z,99.90
2023-05-05T03:19:33.739Z,99.90
2023-05-05T03:22:03.202Z,99.90
2023-05-05T03:24:30.384Z,99.90
2023-05-05T03:26:57.906Z,99.90
2023-05-05T03:29:25.625Z,99.90
2023-05-05T03:31:53.249Z,99.90
2023-05-05T03:34:20.747Z,99.90
2023-05-05T03:36:47.977Z,99.90
2023-05-05T03:39:15.756Z,99.90
2023-05-05T03:41:43.035Z,99.90
2023-05-05T03:44:10.614Z,99.90
2023-05-05T03:46:39.249Z,99.90
2023-05-05T03:49:16.499Z,99.90
2023-05-05T03:51:47.863Z,99.90
2023-05-05T03:54:20.777Z,99.90
2023-05-05T03:56:53.784Z,99.90
2023-05-05T03:59:24.593Z,99.90
2023-05-05T04:01:56.442Z,99.90
2023-05-05T04:04:24.826Z,99.90
2023-05-05T04:06:59.430Z,99.90
2023-05-05T04:09:29.812Z,99.90
2023-05-05T04:11:57.326Z,99.90
2023-05-05T04:14:24.670Z,99.90
2023-05-05T04:16:51.969Z,99.90
2023-05-05T04:19:19.115Z,99.90
2023-05-05T04:21:47.668Z,99.90
2023-05-05T04:24:15.317Z,99.90
2023-05-05T04:26:43.665Z,99.90
2023-05-05T04:29:15.056Z,99.90
2023-05-05T04:31:42.561Z,99.90
2023-05-05T04:34:09.905Z,99.90
2023-05-05T04:36:37.328Z,99.90
2023-05-05T04:39:08.836Z,99.90
2023-05-05T04:41:36.086Z,99.90
2023-05-05T04:44:08.740Z,99.90
2023-05-05T04:46:36.718Z,99.90
2023-05-05T04:49:05.259Z,99.90
2023-05-05T04:51:32.679Z,99.90
2023-05-05T04:54:08.104Z,99.90
2023-05-05T04:56:35.369Z,99.90
2023-05-05T04:59:05.697Z,99.90
2023-05-05T05:01:35.248Z,99.90
2023-05-05T05:04:05.050Z,99.90
2023-05-05T05:06:32.892Z,99.90
2023-05-05T05:09:00.792Z,99.90
2023-05-05T05:11:28.261Z,99.90
2023-05-05T05:13:57.827Z,99.90
2023-05-05T05:16:32.136Z,99.90
2023-05-05T05:19:01.509Z,99.90
2023-05-05T05:21:29.231Z,99.90
2023-05-05T05:23:56.960Z,99.90
2023-05-05T05:26:24.734Z,99.90
2023-05-05T05:28:52.341Z,99.90
2023-05-05T05:31:19.548Z,99.90
2023-05-05T05:33:46.777Z,99.90
2023-05-05T05:36:15.845Z,99.90
2023-05-05T05:38:43.568Z,99.90
2023-05-05T05:41:14.016Z,99.90
2023-05-05T05:43:41.984Z,99.90
2023-05-05T05:46:09.544Z,99.90
2023-05-05T05:48:36.913Z,99.90
2023-05-05T05:51:07.635Z,99.90
2023-05-05T05:53:35.191Z,99.90
2023-05-05T05:56:02.462Z,99.90
2023-05-05T05:58:29.998Z,99.90
2023-05-05T06:00:59.351Z,99.90
2023-05-05T06:03:30.808Z,99.90
2023-05-05T06:05:59.390Z,99.90
2023-05-05T06:08:27.110Z,99.90
2023-05-05T06:11:01.957Z,99.90
2023-05-05T06:13:29.820Z,99.90
2023-05-05T06:15:57.557Z,99.90
2023-05-05T06:18:25.355Z,99.90
2023-05-05T06:20:52.690Z,99.90
2023-05-05T06:23:19.836Z,99.90
2023-05-05T06:25:47.789Z,99.90
2023-05-05T06:28:17.182Z,99.90
2023-05-05T06:30:47.360Z,99.90
2023-05-05T06:33:15.062Z,99.90
2023-05-05T06:35:42.223Z,99.90
2023-05-05T06:38:11.197Z,99.90
2023-05-05T06:40:38.354Z,99.90
2023-05-05T06:43:08.470Z,99.90
2023-05-05T06:45:39.574Z,99.90
2023-05-05T06:48:07.477Z,99.90
2023-05-05T06:50:37.904Z,99.90
2023-05-05T06:53:05.114Z,99.90
2023-05-05T06:55:32.272Z,99.90
2023-05-05T06:57:59.455Z,99.90
2023-05-05T07:00:27.867Z,99.90
2023-05-05T07:02:59.611Z,99.90
2023-05-05T07:05:27.126Z,99.90
2023-05-05T07:07:55.705Z,99.90
2023-05-05T07:10:25.179Z,99.90
2023-05-05T07:12:52.626Z,99.90
2023-05-05T07:15:28.829Z,99.90
2023-05-05T07:17:57.165Z,99.90
2023-05-05T07:20:25.795Z,99.90
2023-05-05T07:22:56.264Z,99.90
2023-05-05T07:25:23.472Z,99.90
2023-05-05T07:27:53.882Z,99.90
2023-05-05T07:30:28.930Z,99.90
2023-05-05T07:32:58.842Z,99.90
2023-05-05T07:35:26.582Z,99.90
2023-05-05T07:38:01.407Z,99.90
2023-05-05T07:40:49.210Z,99.90
2023-05-05T07:43:17.093Z,99.90
2023-05-05T07:45:44.631Z,99.90
2023-05-05T07:48:12.009Z,99.90
2023-05-05T07:50:46.983Z,99.90
2023-05-05T07:53:15.876Z,99.90
2023-05-05T07:55:46.136Z,99.90
2023-05-05T07:58:13.508Z,99.90
2023-05-05T08:00:41.108Z,99.90
2023-05-05T08:03:11.381Z,99.90
2023-05-05T08:05:42.300Z,99.90
2023-05-05T08:08:13.320Z,99.70
2023-05-05T08:10:40.727Z,99.40
2023-05-05T08:13:16.872Z,99.30
2023-05-05T08:15:47.212Z,99.60
2023-05-05T08:18:15.099Z,99.00
2023-05-05T08:20:45.150Z,98.90
2023-05-05T08:23:15.822Z,98.70
2023-05-05T08:25:51.460Z,98.40
2023-05-05T08:28:26.198Z,97.40
2023-05-05T08:30:56.790Z,98.70
2023-05-05T08:33:27.560Z,96.90
2023-05-05T08:35:55.089Z,96.90
2023-05-05T08:38:25.470Z,95.20
2023-05-05T08:40:53.640Z,95.70
2023-05-05T08:43:22.970Z,95.30
2023-05-05T08:45:53.767Z,95.30
2023-05-05T08:48:27.813Z,95.60
2023-05-05T08:51:05.761Z,95.50
2023-05-05T08:53:54.288Z,93.60
2023-05-05T08:56:25.388Z,93.40
2023-05-05T08:58:56.228Z,93.70
2023-05-05T09:01:24.133Z,92.90
2023-05-05T09:03:52.713Z,92.70
2023-05-05T09:06:25.778Z,92.20
2023-05-05T09:08:59.519Z,92.80
2023-05-05T09:11:28.370Z,92.50
2023-05-05T09:14:08.820Z,91.80
2023-05-05T09:16:36.198Z,91.20
2023-05-05T09:19:04.372Z,92.50
2023-05-05T09:21:32.509Z,92.70
2023-05-05T09:24:24.574Z,92.10
2023-05-05T09:26:52.131Z,91.00
2023-05-05T09:29:25.403Z,90.70
2023-05-05T09:32:11.405Z,90.50
2023-05-05T09:34:38.960Z,88.20
2023-05-05T09:37:06.590Z,86.80
2023-05-05T09:39:36.308Z,85.70
2023-05-05T09:42:06.592Z,83.20
2023-05-05T09:44:35.327Z,82.80
2023-05-05T09:47:14.813Z,82.40
2023-05-05T09:50:03.992Z,80.80
2023-05-05T09:52:33.184Z,81.50
2023-05-05T09:55:39.601Z,80.80
2023-05-05T09:58:32.646Z,81.00
2023-05-05T10:01:00.825Z,78.50
2023-05-05T10:03:28.340Z,80.60
2023-05-05T10:06:03.847Z,78.60
2023-05-05T10:08:33.761Z,78.00
2023-05-05T10:11:06.596Z,78.40
2023-05-05T10:13:41.298Z,79.80
2023-05-05T10:16:09.880Z,80.50
2023-05-05T10:18:40.425Z,81.50
2023-05-05T10:21:09.378Z,81.40
2023-05-05T10:23:42.055Z,82.40
2023-05-05T10:26:17.304Z,84.40
2023-05-05T10:28:52.101Z,83.60
2023-05-05T10:31:50.324Z,83.40
2023-05-05T10:34:39.465Z,83.00
2023-05-05T10:37:07.822Z,84.20
2023-05-05T10:39:40.760Z,84.90
2023-05-05T10:42:11.185Z,83.90
2023-05-05T10:44:54.912Z,82.70
2023-05-05T10:47:24.976Z,84.30
2023-05-05T10:50:30.889Z,83.40
2023-05-05T10:53:23.952Z,83.20
2023-05-05T10:55:54.285Z,82.90
2023-05-05T10:58:51.036Z,79.70
2023-05-05T11:01:34.649Z,81.70
2023-05-05T11:04:29.628Z,80.50
2023-05-05T11:07:29.970Z,78.90
2023-05-05T11:10:21.282Z,81.00
2023-05-05T11:13:05.111Z,80.20
2023-05-05T11:15:38.944Z,80.60
2023-05-05T11:18:08.275Z,81.30
2023-05-05T11:20:52.306Z,81.90
2023-05-05T11:23:20.172Z,78.70
2023-05-05T11:25:49.294Z,80.00
2023-05-05T11:28:19.225Z,80.20
2023-05-05T11:31:15.590Z,80.10
2023-05-05T11:33:53.182Z,78.70
2023-05-05T11:36:41.125Z,77.20
2023-05-05T11:39:29.467Z,80.60
2023-05-05T11:42:12.898Z,84.90
2023-05-05T11:44:49.858Z,80.80
2023-05-05T11:47:17.043Z,80.30
2023-05-05T11:49:44.269Z,80.80
2023-05-05T11:52:13.296Z,81.50
2023-05-05T11:54:51.464Z,79.00
2023-05-05T11:57:28.188Z,77.00
2023-05-05T12:00:10.604Z,78.50
2023-05-05T12:08:14.609Z,79.10
2023-05-05T12:10:45.017Z,80.00
2023-05-05T12:19:51.429Z,80.20
2023-05-05T12:22:44.546Z,77.50
2023-05-05T12:25:13.759Z,79.60
2023-05-05T12:27:41.860Z,79.90
2023-05-05T12:30:18.156Z,79.30
2023-05-05T12:32:47.405Z,76.60
2023-05-05T12:35:31.842Z,75.00
2023-05-05T12:38:07.453Z,73.20
2023-05-05T12:40:58.268Z,72.90
2023-05-05T12:43:28.650Z,71.30
2023-05-05T12:46:13.030Z,71.40
2023-05-05T12:49:24.709Z,70.30
2023-05-05T12:51:57.037Z,70.60
2023-05-05T12:54:25.707Z,68.70
2023-05-05T12:56:53.058Z,67.10
2023-05-05T12:59:31.042Z,67.60
2023-05-05T13:02:07.222Z,69.40
2023-05-05T13:05:08.144Z,71.30
2023-05-05T13:07:36.540Z,72.60
2023-05-05T13:10:12.271Z,73.10
2023-05-05T13:12:44.175Z,74.10
2023-05-05T13:15:23.677Z,71.20
2023-05-05T13:18:01.880Z,71.00
2023-05-05T13:20:34.718Z,68.30
2023-05-05T13:23:24.134Z,64.20
2023-05-05T13:28:33.927Z,67.90
2023-05-05T13:31:03.776Z,70.40
2023-05-05T13:33:37.027Z,71.10
2023-05-05T13:39:03.848Z,69.60
2023-05-05T13:41:38.650Z,69.00
2023-05-05T13:47:27.840Z,66.10
2023-05-05T13:50:04.817Z,70.50
2023-05-05T13:52:33.015Z,65.40
2023-05-05T13:55:19.808Z,63.50
2023-05-05T13:58:42.566Z,69.20
2023-05-05T14:01:15.329Z,65.30
2023-05-05T14:04:11.191Z,63.40
2023-05-05T14:10:40.108Z,61.60
2023-05-05T14:13:15.571Z,63.70
2023-05-05T14:15:56.243Z,60.70
2023-05-05T14:28:37.678Z,67.40
2023-05-05T14:31:09.789Z,66.30
2023-05-05T14:33:37.593Z,68.00
2023-05-05T14:36:06.546Z,68.20
2023-05-05T14:38:33.702Z,68.30
2023-05-05T14:41:01.191Z,69.20
2023-05-05T14:43:31.111Z,70.00
2023-05-05T14:46:00.471Z,71.30
2023-05-05T14:48:36.263Z,70.30
2023-05-05T14:51:13.173Z,68.00
2023-05-05T14:53:50.257Z,58.20
2023-05-05T14:56:21.810Z,58.30
2023-05-05T14:58:50.388Z,62.70
2023-05-05T15:01:42.039Z,61.40
2023-05-05T15:05:04.398Z,65.90
2023-05-05T15:08:28.445Z,63.50
2023-05-05T15:11:21.091Z,60.80
2023-05-05T15:13:50.993Z,59.70
2023-05-05T15:16:19.697Z,60.70
2023-05-05T15:18:55.733Z,64.60
2023-05-05T15:21:28.511Z,67.80
2023-05-05T15:23:55.866Z,68.10
2023-05-05T15:26:25.151Z,67.80
2023-05-05T15:28:55.577Z,67.70
2023-05-05T15:31:26.803Z,66.90
2023-05-05T15:34:03.298Z,67.00
2023-05-05T15:36:35.146Z,63.00
2023-05-05T15:39:08.992Z,60.70
2023-05-05T15:41:45.028Z,64.20
2023-05-05T15:44:21.171Z,66.50
2023-05-05T15:47:09.571Z,66.50
2023-05-05T15:49:51.458Z,63.60
2023-05-05T15:52:22.831Z,64.60
2023-05-05T16:04:00.165Z,67.70
2023-05-05T16:06:38.126Z,68.20
2023-05-05T16:09:06.647Z,68.60
2023-05-05T16:11:38.285Z,67.70
2023-05-05T16:14:20.162Z,67.10
2023-05-05T16:16:49.023Z,67.40
2023-05-05T16:19:44.211Z,67.10
2023-05-05T16:22:27.392Z,68.00
2023-05-05T16:25:19.923Z,67.90
2023-05-05T16:28:10.232Z,67.90
2023-05-05T16:34:05.731Z,65.50
2023-05-05T16:36:33.468Z,67.80
2023-05-05T16:45:27.512Z,67.40
2023-05-05T16:51:00.313Z,68.00
2023-05-05T16:53:37.533Z,67.80
2023-05-05T16:56:15.425Z,68.50
2023-05-05T17:06:59.829Z,67.00
2023-05-05T17:13:24.889Z,63.40
2023-05-05T17:15:53.190Z,65.00
2023-05-05T17:18:35.218Z,66.70
2023-05-05T17:21:26.063Z,68.10
2023-05-05T17:24:25.893Z,69.00
2023-05-05T17:29:45.851Z,70.30
2023-05-05T17:32:30.862Z,70.30
2023-05-05T17:37:52.885Z,71.40
2023-05-05T17:41:00.150Z,71.20
2023-05-05T17:47:24.845Z,72.00
2023-05-05T17:56:22.918Z,71.80
2023-05-05T18:01:39.476Z,72.30
2023-05-05T18:04:19.260Z,72.10
2023-05-05T18:06:52.871Z,72.20
2023-05-05T18:09:25.543Z,71.60
2023-05-05T18:12:08.014Z,72.10
2023-05-05T18:14:38.781Z,72.20
2023-05-05T18:17:08.356Z,72.50
2023-05-05T18:19:49.100Z,72.40
2023-05-05T18:22:17.202Z,72.20
2023-05-05T18:24:51.404Z,71.80
2023-05-05T18:27:22.371Z,72.40
2023-05-05T18:29:56.269Z,72.60
2023-05-05T18:35:23.826Z,72.30
2023-05-05T18:37:56.225Z,72.30
2023-05-05T18:40:34.394Z,73.00
2023-05-05T18:49:41.337Z,73.50
2023-05-05T18:52:12.933Z,74.00
2023-05-05T18:54:41.505Z,74.00
2023-05-05T19:02:49.117Z,73.90
2023-05-05T19:05:27.813Z,74.30
2023-05-05T19:07:59.174Z,74.30
2023-05-05T19:10:34.074Z,74.50
2023-05-05T19:13:03.970Z,74.70
2023-05-05T19:25:30.018Z,75.30
2023-05-05T19:28:26.430Z,75.70
2023-05-05T19:31:01.480Z,76.20
2023-05-05T19:33:36.266Z,76.30
2023-05-05T19:36:06.640Z,76.70
2023-05-05T19:38:34.999Z,77.10
2023-05-05T19:41:14.052Z,77.10
2023-05-05T19:44:09.624Z,77.60
2023-05-05T19:47:41.015Z,77.30
2023-05-05T19:50:11.117Z,78.10
2023-05-05T19:55:59.418Z,78.30
2023-05-05T19:59:07.105Z,78.50
2023-05-05T20:08:42.261Z,79.50
2023-05-05T20:11:59.426Z,79.50
2023-05-05T20:14:31.660Z,80.30
2023-05-05T20:19:58.895Z,79.90
2023-05-05T20:22:38.844Z,80.10
2023-05-05T20:25:25.989Z,80.70
2023-05-05T20:27:53.884Z,80.90
2023-05-05T20:30:28.898Z,81.50
2023-05-05T20:32:56.393Z,81.50
2023-05-05T20:35:24.917Z,81.50
2023-05-05T20:37:52.414Z,81.70
2023-05-05T20:40:19.760Z,81.70
2023-05-05T20:42:50.654Z,82.30
2023-05-05T20:45:19.144Z,82.40
2023-05-05T20:47:48.058Z,82.30
2023-05-05T20:50:16.315Z,82.80
2023-05-05T20:52:47.599Z,83.20
2023-05-05T20:55:19.353Z,83.10
2023-05-05T20:57:47.140Z,83.30
2023-05-05T21:00:17.817Z,83.80
2023-05-05T21:02:45.977Z,84.20
2023-05-05T21:05:16.976Z,84.30
2023-05-05T21:07:44.962Z,84.40
2023-05-05T21:10:15.737Z,84.70
2023-05-05T21:12:51.372Z,86.00
2023-05-05T21:15:19.808Z,86.50
2023-05-05T21:17:50.838Z,86.50
2023-05-05T21:20:28.875Z,86.90
2023-05-05T21:22:58.888Z,87.10
2023-05-05T21:25:27.368Z,87.50
2023-05-05T21:27:55.239Z,87.90
2023-05-05T21:30:32.739Z,89.00
2023-05-05T21:39:00.288Z,90.80
2023-05-05T21:41:41.779Z,91.00
2023-05-05T21:44:32.368Z,90.80
2023-05-05T21:47:25.063Z,91.10
2023-05-05T21:49:59.307Z,91.50
2023-05-05T21:52:38.186Z,91.90
2023-05-05T21:55:22.066Z,91.50
2023-05-05T21:58:21.925Z,91.40
2023-05-05T22:01:03.873Z,91.60
2023-05-05T22:03:54.430Z,92.30
2023-05-05T22:07:03.460Z,92.40
2023-05-05T22:09:46.636Z,92.70
2023-05-05T22:12:20.263Z,92.80
2023-05-05T22:14:51.074Z,93.10
2023-05-05T22:17:18.949Z,93.80
2023-05-05T22:23:59.311Z,94.90
2023-05-05T22:27:04.724Z,96.10
2023-05-05T22:29:46.146Z,97.60
2023-05-05T22:32:46.492Z,97.90
2023-05-05T22:35:20.510Z,98.60
2023-05-05T22:38:42.348Z,98.40
2023-05-05T22:41:21.361Z,98.90
2023-05-05T22:43:55.857Z,99.80
2023-05-05T22:46:27.573Z,99.80
2023-05-05T22:48:55.471Z,99.90
2023-05-05T22:51:33.260Z,99.90
2023-05-05T22:54:07.875Z,99.90
2023-05-05T22:56:44.534Z,99.90
2023-05-05T22:59:15.680Z,99.90
2023-05-05T23:01:48.790Z,99.90
2023-05-05T23:04:26.313Z,99.90
2023-05-05T23:06:53.720Z,99.90
2023-05-05T23:09:21.056Z,99.90
2023-05-05T23:11:49.935Z,99.90
2023-05-05T23:14:32.026Z,99.90
2023-05-05T23:17:02.486Z,99.90
2023-05-05T23:19:34.634Z,99.90
2023-05-05T23:22:02.662Z,99.90
2023-05-05T23:24:31.991Z,99.90
2023-05-05T23:27:02.219Z,99.90
2023-05-05T23:29:31.574Z,99.90
2023-05-05T23:31:58.790Z,99.90
2023-05-05T23:34:26.979Z,99.90
2023-05-05T23:36:57.915Z,99.90
2023-05-05T23:39:27.360Z,99.90
2023-05-05T23:41:54.730Z,99.90
2023-05-05T23:44:25.098Z,99.90
2023-05-05T23:46:52.776Z,99.90
2023-05-05T23:49:21.247Z,99.90
2023-05-05T23:51:52.776Z,99.90
2023-05-05T23:54:21.638Z,99.90
2023-05-05T23:56:51.897Z,99.90
2023-05-05T23:59:19.282Z,99.90
